createdAt,value
2023-03-22T00:01:21.247Z,9.60
2023-03-22T00:03:49.270Z,9.60
2023-03-22T00:06:16.750Z,9.60
2023-03-22T00:08:44.726Z,9.60
2023-03-22T00:11:12.709Z,9.60
2023-03-22T00:13:39.916Z,9.60
2023-03-22T00:16:07.357Z,9.60
2023-03-22T00:18:34.253Z,9.60
2023-03-22T00:21:01.758Z,9.60
2023-03-22T00:23:29.104Z,9.70
2023-03-22T00:25:56.363Z,9.70
2023-03-22T00:28:23.637Z,9.70
2023-03-22T00:31:00.046Z,9.60
2023-03-22T00:33:29.206Z,9.80
2023-03-22T00:36:04.782Z,9.70
2023-03-22T00:38:44.964Z,9.70
2023-03-22T00:41:16.024Z,9.80
2023-03-22T00:43:46.064Z,10.00
2023-03-22T00:46:14.740Z,9.80
2023-03-22T00:48:41.671Z,9.80
2023-03-22T00:51:09.936Z,9.70
2023-03-22T00:53:41.090Z,9.60
2023-03-22T00:56:09.981Z,9.70
2023-03-22T00:58:44.929Z,9.70
2023-03-22T01:01:14.037Z,9.80
2023-03-22T01:03:42.621Z,9.60
2023-03-22T01:06:11.136Z,9.60
2023-03-22T01:08:39.034Z,9.60
2023-03-22T01:11:07.267Z,9.50
2023-03-22T01:13:34.767Z,9.50
2023-03-22T01:16:01.861Z,9.50
2023-03-22T01:18:28.678Z,9.50
2023-03-22T01:20:55.668Z,9.60
2023-03-22T01:23:22.461Z,9.50
2023-03-22T01:25:49.230Z,9.40
2023-03-22T01:28:16.097Z,9.40
2023-03-22T01:30:43.205Z,9.50
2023-03-22T01:33:10.213Z,9.40
2023-03-22T01:35:37.435Z,9.40
2023-03-22T01:38:05.874Z,9.40
2023-03-22T01:40:36.824Z,9.30
2023-03-22T01:43:04.036Z,9.30
2023-03-22T01:45:43.409Z,9.30
2023-03-22T01:48:14.323Z,9.20
2023-03-22T01:50:44.464Z,9.10
2023-03-22T01:53:14.147Z,9.20
2023-03-22T01:55:42.448Z,9.10
2023-03-22T01:58:17.997Z,9.10
2023-03-22T02:00:53.721Z,9.00
2023-03-22T02:03:50.672Z,9.00
2023-03-22T02:06:19.265Z,9.00
2023-03-22T02:08:53.040Z,8.80
2023-03-22T02:11:38.526Z,8.80
2023-03-22T02:14:14.953Z,8.80
2023-03-22T02:17:30.053Z,9.00
2023-03-22T02:20:38.629Z,8.80
2023-03-22T02:23:42.913Z,8.70
2023-03-22T02:26:49.520Z,8.70
2023-03-22T02:29:31.285Z,8.70
2023-03-22T02:32:31.875Z,8.60
2023-03-22T02:35:16.637Z,8.60
2023-03-22T02:38:13.697Z,8.50
2023-03-22T02:41:22.828Z,8.50
2023-03-22T02:43:56.368Z,8.50
2023-03-22T02:46:32.693Z,8.50
2023-03-22T02:49:18.925Z,8.50
2023-03-22T02:52:17.262Z,8.50
2023-03-22T02:55:00.668Z,8.40
2023-03-22T02:57:40.374Z,8.40
2023-03-22T03:00:11.426Z,8.40
2023-03-22T03:02:43.321Z,8.30
2023-03-22T03:05:12.682Z,8.30
2023-03-22T03:07:44.415Z,8.30
2023-03-22T03:10:15.990Z,8.30
2023-03-22T03:12:43.342Z,8.20
2023-03-22T03:15:15.492Z,8.20
2023-03-22T03:18:07.222Z,8.10
2023-03-22T03:20:57.305Z,8.10
2023-03-22T03:23:59.086Z,8.10
2023-03-22T03:26:46.314Z,8.10
2023-03-22T03:29:30.123Z,8.10
2023-03-22T03:32:17.482Z,8.10
2023-03-22T03:34:57.222Z,8.00
2023-03-22T03:37:30.978Z,8.00
2023-03-22T03:40:09.732Z,7.90
2023-03-22T03:42:46.513Z,7.90
2023-03-22T03:45:15.373Z,7.90
2023-03-22T03:47:45.452Z,7.90
2023-03-22T03:50:15.787Z,7.90
2023-03-22T03:52:43.299Z,7.80
2023-03-22T03:55:10.574Z,7.80
2023-03-22T03:57:37.359Z,7.80
2023-03-22T04:00:05.665Z,7.70
2023-03-22T04:02:48.686Z,7.80
2023-03-22T04:05:40.197Z,7.70
2023-03-22T04:08:07.808Z,7.70
2023-03-22T04:10:34.745Z,7.70
2023-03-22T04:13:01.772Z,7.70
2023-03-22T04:15:28.631Z,7.80
2023-03-22T04:17:59.181Z,7.70
2023-03-22T04:20:29.868Z,7.80
2023-03-22T04:22:58.052Z,7.80
2023-03-22T04:25:30.340Z,7.80
2023-03-22T04:28:09.597Z,7.80
2023-03-22T04:30:36.719Z,7.90
2023-03-22T04:33:23.324Z,7.70
2023-03-22T04:36:17.358Z,7.70
2023-03-22T04:38:58.944Z,7.70
2023-03-22T04:41:25.820Z,7.60
2023-03-22T04:43:57.621Z,7.60
2023-03-22T04:46:24.541Z,7.60
2023-03-22T04:49:00.355Z,7.60
2023-03-22T04:51:28.080Z,7.60
2023-03-22T04:54:17.346Z,7.60
2023-03-22T04:56:45.042Z,7.60
2023-03-22T04:59:13.153Z,7.60
2023-03-22T05:01:42.469Z,7.70
2023-03-22T05:04:17.282Z,7.60
2023-03-22T05:06:45.046Z,7.50
2023-03-22T05:09:22.164Z,7.50
2023-03-22T05:11:51.793Z,7.50
2023-03-22T05:14:25.794Z,7.50
2023-03-22T05:16:52.962Z,7.50
2023-03-22T05:19:22.296Z,7.60
2023-03-22T05:21:57.815Z,7.40
2023-03-22T05:24:30.417Z,7.50
2023-03-22T05:27:00.928Z,7.40
2023-03-22T05:29:28.518Z,7.40
2023-03-22T05:32:06.776Z,7.40
2023-03-22T05:34:37.115Z,7.30
2023-03-22T05:37:24.430Z,7.30
2023-03-22T05:39:54.481Z,7.40
2023-03-22T05:42:26.434Z,7.30
2023-03-22T05:44:53.335Z,7.20
2023-03-22T05:47:22.082Z,7.30
2023-03-22T05:49:55.523Z,7.30
2023-03-22T05:52:24.477Z,7.30
2023-03-22T05:55:14.834Z,7.30
2023-03-22T05:57:41.986Z,7.20
2023-03-22T06:00:13.484Z,7.30
2023-03-22T06:02:47.904Z,7.30
2023-03-22T06:05:17.003Z,7.30
2023-03-22T06:07:44.706Z,7.10
2023-03-22T06:10:16.715Z,7.10
2023-03-22T06:12:43.966Z,7.20
2023-03-22T06:15:16.825Z,7.20
2023-03-22T06:17:43.591Z,7.40
2023-03-22T06:20:15.518Z,7.40
2023-03-22T06:22:49.856Z,7.30
2023-03-22T06:25:17.501Z,7.30
2023-03-22T06:27:47.900Z,7.40
2023-03-22T06:30:15.283Z,7.40
2023-03-22T06:33:05.094Z,7.40
2023-03-22T06:35:35.436Z,7.50
2023-03-22T06:38:03.761Z,7.50
2023-03-22T06:40:30.617Z,7.50
2023-03-22T06:42:57.380Z,7.50
2023-03-22T06:45:24.895Z,7.60
2023-03-22T06:47:51.722Z,7.60
2023-03-22T06:50:38.484Z,7.70
2023-03-22T06:53:14.278Z,8.00
2023-03-22T06:55:41.365Z,7.70
2023-03-22T06:58:12.506Z,7.90
2023-03-22T07:00:39.885Z,7.90
2023-03-22T07:03:08.193Z,8.00
2023-03-22T07:05:47.686Z,8.30
2023-03-22T07:08:14.489Z,8.50
2023-03-22T07:10:51.322Z,8.40
2023-03-22T07:13:20.831Z,8.60
2023-03-22T07:15:49.633Z,8.50
2023-03-22T07:18:35.900Z,8.80
2023-03-22T07:21:03.082Z,8.80
2023-03-22T07:23:30.372Z,9.00
2023-03-22T07:26:03.560Z,9.20
2023-03-22T07:28:33.510Z,9.30
2023-03-22T07:31:05.726Z,9.50
2023-03-22T07:33:43.553Z,9.50
2023-03-22T07:36:11.317Z,9.60
2023-03-22T07:38:38.363Z,9.60
2023-03-22T07:41:09.504Z,9.70
2023-03-22T07:43:56.774Z,9.80
2023-03-22T07:46:25.171Z,9.80
2023-03-22T07:49:10.934Z,9.90
2023-03-22T07:51:37.730Z,10.00
2023-03-22T07:54:07.154Z,10.00
2023-03-22T07:56:35.104Z,10.00
2023-03-22T07:59:02.203Z,10.10
2023-03-22T08:01:29.243Z,10.20
2023-03-22T08:04:06.814Z,10.30
2023-03-22T08:06:46.487Z,10.40
2023-03-22T08:09:13.389Z,10.40
2023-03-22T08:11:41.225Z,10.40
2023-03-22T08:14:09.171Z,10.50
2023-03-22T08:16:38.526Z,10.40
2023-03-22T08:19:06.049Z,10.40
2023-03-22T08:21:36.988Z,10.50
2023-03-22T08:24:07.429Z,10.50
2023-03-22T08:26:57.666Z,10.60
2023-03-22T08:29:44.538Z,10.60
2023-03-22T08:32:11.448Z,10.70
2023-03-22T08:34:41.467Z,10.80
2023-03-22T08:37:09.794Z,10.60
2023-03-22T08:39:37.847Z,10.70
2023-03-22T08:42:25.086Z,10.80
2023-03-22T08:44:52.535Z,10.80
2023-03-22T08:47:21.417Z,10.80
2023-03-22T08:49:52.578Z,10.80
2023-03-22T08:52:25.076Z,10.80
2023-03-22T08:55:06.301Z,10.80
2023-03-22T08:57:59.003Z,11.00
2023-03-22T09:00:49.883Z,11.10
2023-03-22T09:03:24.994Z,11.20
2023-03-22T09:05:52.631Z,11.10
2023-03-22T09:08:20.405Z,11.10
2023-03-22T09:10:52.658Z,11.30
2023-03-22T09:13:21.863Z,11.30
2023-03-22T09:15:54.514Z,11.30
2023-03-22T09:18:25.329Z,11.40
2023-03-22T09:20:53.670Z,11.50
2023-03-22T09:23:25.068Z,11.60
2023-03-22T09:25:52.840Z,11.50
2023-03-22T09:28:24.219Z,11.50
2023-03-22T09:30:52.671Z,11.50
2023-03-22T09:33:19.509Z,11.60
2023-03-22T09:35:50.358Z,11.60
2023-03-22T09:38:17.240Z,11.80
2023-03-22T09:41:00.614Z,11.80
2023-03-22T09:43:35.205Z,11.80
2023-03-22T09:46:05.284Z,11.80
2023-03-22T09:48:35.762Z,11.80
2023-03-22T09:51:05.068Z,12.10
2023-03-22T09:53:33.279Z,12.00
2023-03-22T09:56:03.020Z,12.00
2023-03-22T09:58:50.031Z,12.00
2023-03-22T10:01:35.219Z,12.10
2023-03-22T10:04:25.241Z,12.10
2023-03-22T10:07:21.791Z,12.20
2023-03-22T10:10:04.318Z,12.20
2023-03-22T10:12:51.320Z,12.20
2023-03-22T10:15:42.432Z,12.30
2023-03-22T10:18:18.165Z,12.30
2023-03-22T10:21:04.939Z,12.20
2023-03-22T10:24:01.865Z,12.40
2023-03-22T10:26:38.157Z,12.50
2023-03-22T10:29:19.432Z,12.50
2023-03-22T10:31:46.457Z,12.60
2023-03-22T10:34:21.708Z,12.60
2023-03-22T10:36:51.850Z,12.50
2023-03-22T10:39:28.196Z,12.70
2023-03-22T10:42:02.317Z,12.70
2023-03-22T10:44:35.350Z,12.80
2023-03-22T10:47:08.065Z,12.80
2023-03-22T10:49:40.421Z,12.90
2023-03-22T10:52:25.895Z,13.00
2023-03-22T10:54:52.818Z,12.90
2023-03-22T10:57:19.638Z,13.00
2023-03-22T10:59:56.294Z,12.90
2023-03-22T11:02:28.149Z,13.00
2023-03-22T11:04:58.150Z,13.10
2023-03-22T11:07:44.896Z,13.10
2023-03-22T11:10:18.875Z,13.20
2023-03-22T11:12:55.235Z,13.40
2023-03-22T11:15:32.217Z,13.40
2023-03-22T11:18:15.715Z,13.30
2023-03-22T11:20:52.101Z,13.30
2023-03-22T11:23:21.570Z,13.30
2023-03-22T11:25:51.116Z,13.30
2023-03-22T11:28:26.641Z,13.20
2023-03-22T11:31:05.266Z,13.30
2023-03-22T11:33:32.327Z,13.50
2023-03-22T11:36:02.548Z,13.80
2023-03-22T11:38:37.134Z,13.70
2023-03-22T11:41:24.434Z,13.60
2023-03-22T11:43:54.936Z,13.60
2023-03-22T11:46:22.918Z,13.70
2023-03-22T11:49:00.954Z,13.70
2023-03-22T11:51:37.585Z,13.60
2023-03-22T11:54:36.825Z,13.60
2023-03-22T11:57:05.847Z,13.60
2023-03-22T11:59:44.982Z,13.70
2023-03-22T12:02:31.396Z,13.70
2023-03-22T12:05:24.401Z,13.70
2023-03-22T12:08:11.475Z,13.70
2023-03-22T12:10:44.427Z,13.70
2023-03-22T12:13:27.014Z,13.60
2023-03-22T12:15:58.165Z,13.80
2023-03-22T12:18:29.663Z,13.80
2023-03-22T12:20:58.997Z,13.70
2023-03-22T12:23:29.336Z,13.80
2023-03-22T12:25:58.843Z,13.80
2023-03-22T12:28:40.606Z,13.80
2023-03-22T12:31:13.871Z,13.90
2023-03-22T12:33:44.583Z,13.90
2023-03-22T12:36:17.369Z,13.90
2023-03-22T12:38:55.959Z,14.00
2023-03-22T12:41:39.613Z,14.10
2023-03-22T12:44:25.121Z,14.10
2023-03-22T12:46:58.096Z,14.00
2023-03-22T12:49:58.952Z,14.00
2023-03-22T12:52:46.242Z,14.10
2023-03-22T12:55:27.534Z,14.10
2023-03-22T12:57:54.860Z,14.20
2023-03-22T13:00:30.413Z,14.20
2023-03-22T13:03:10.323Z,14.20
2023-03-22T13:05:37.976Z,14.30
2023-03-22T13:08:05.572Z,14.30
2023-03-22T13:10:36.831Z,14.30
2023-03-22T13:13:21.609Z,14.30
2023-03-22T13:16:14.295Z,14.30
2023-03-22T13:18:44.457Z,14.30
2023-03-22T13:21:23.215Z,14.30
2023-03-22T13:23:56.508Z,14.40
2023-03-22T13:26:32.214Z,14.40
2023-03-22T13:29:01.320Z,14.60
2023-03-22T13:31:44.481Z,14.60
2023-03-22T13:34:20.664Z,14.70
2023-03-22T13:36:54.215Z,14.70
2023-03-22T13:39:23.309Z,15.00
2023-03-22T13:42:02.640Z,14.80
2023-03-22T13:44:43.878Z,15.10
2023-03-22T13:47:33.333Z,15.10
2023-03-22T13:50:02.274Z,15.00
2023-03-22T13:52:36.239Z,15.10
2023-03-22T13:55:04.144Z,15.20
2023-03-22T13:57:57.013Z,15.10
2023-03-22T14:00:30.278Z,15.10
2023-03-22T14:03:09.703Z,15.10
2023-03-22T14:05:38.718Z,15.10
2023-03-22T14:08:06.432Z,15.20
2023-03-22T14:10:41.959Z,15.10
2023-03-22T14:13:21.012Z,15.20
2023-03-22T14:15:53.277Z,15.20
2023-03-22T14:18:36.378Z,15.20
2023-03-22T14:21:13.858Z,15.30
